1855 Hurricane NOT_NAMED (1855252N20274)


IBTrACS version v04r00. Visit IBTrACS website for data access.
Please direct all questions to the IBTrACS Q and A forum

Storm track - Intensity - Wind Radii - Intensity Data - Source Data - All data

Summary Information

Storm ID 1855252N20274
Start Sep 8 18Z
Landfall Sep 9 06Z, Sep 16 03Z, Sep 16 15Z
Max Intensity 110 kt (Sep 15 18Z)
End Sep 17 12Z
ATCF IDs ,AL051855
Track status Best track data.

Storm track plot

Map of storm track

Intensity plots

Map of storm track

Radial wind information

No radial wind information for this storm


Position and Intensity Table

BASIN ISO_TIME_________ NATURE LAT LON WMO WIND USA WIND MLC WIND
degrees north degrees east kts kts kts
NA 1855-09-08 18:00:00 TS 19.90 -85.90 30
NA 21:00:00 TS 20.05 -86.40 30
NA 1855-09-09 00:00:00 TS 20.20 -86.90 30
NA 03:00:00 TS 20.35 -87.37 32
NA 06:00:00 TS 20.50 -87.80 35
NA 09:00:00 TS 20.65 -88.17 35
NA 12:00:00 TS 20.80 -88.50 35
NA 15:00:00 TS 20.94 -88.86 35
NA 18:00:00 TS 21.10 -89.20 35
NA 21:00:00 TS 21.30 -89.51 37
NA 1855-09-10 00:00:00 TS 21.50 -89.80 40
NA 03:00:00 TS 21.65 -90.07 40
NA 06:00:00 TS 21.80 -90.30 40
NA 09:00:00 TS 22.00 -90.51 40
NA 12:00:00 TS 22.20 -90.70 40
NA 15:00:00 TS 22.36 -90.87 42
NA 18:00:00 TS 22.50 -91.00 45
NA 21:00:00 TS 22.65 -91.10 45
NA 1855-09-11 00:00:00 TS 22.80 -91.20 45
NA 03:00:00 TS 22.95 -91.36 47
NA 06:00:00 TS 23.10 -91.50 50
NA 09:00:00 TS 23.25 -91.57 52
NA 12:00:00 TS 23.40 -91.60 55
NA 15:00:00 TS 23.55 -91.61 55
NA 18:00:00 TS 23.70 -91.60 55
NA 21:00:00 TS 23.85 -91.61 57
NA 1855-09-12 00:00:00 TS 24.00 -91.60 60
NA 03:00:00 TS 24.15 -91.52 60
NA 06:00:00 TS 24.30 -91.40 60
NA 09:00:00 TS 24.45 -91.30 65
NA 12:00:00 TS 24.60 -91.20 70
NA 15:00:00 TS 24.75 -91.10 72
NA 18:00:00 TS 24.90 -91.00 75
NA 21:00:00 TS 25.05 -90.91 77
NA 1855-09-13 00:00:00 TS 25.20 -90.80 80
NA 03:00:00 TS 25.35 -90.60 82
NA 06:00:00 TS 25.50 -90.40 85
NA 09:00:00 TS 25.65 -90.28 87
NA 12:00:00 TS 25.80 -90.20 90
NA 15:00:00 TS 25.95 -90.11 92
NA 18:00:00 TS 26.10 -90.00 95
NA 21:00:00 TS 26.25 -89.85 95
NA 1855-09-14 00:00:00 TS 26.40 -89.70 95
NA 03:00:00 TS 26.55 -89.59 95
NA 06:00:00 TS 26.70 -89.50 95
NA 09:00:00 TS 26.85 -89.40 95
NA 12:00:00 TS 27.00 -89.30 95
NA 15:00:00 TS 27.14 -89.20 95
NA 18:00:00 TS 27.30 -89.10 95
NA 21:00:00 TS 27.50 -88.99 95
NA 1855-09-15 00:00:00 TS 27.37 -88.97 70 70 95
NA 03:00:00 TS 27.38 -88.96 75 97
NA 06:00:00 TS 27.46 -88.98 80 80 100
NA 09:00:00 TS 27.59 -89.04 85 100
NA 12:00:00 TS 27.80 -89.10 90 90 100
NA 15:00:00 TS 28.07 -89.17 95 105
NA 18:00:00 TS 28.37 -89.23 100 100 110
NA 21:00:00 TS 28.66 -89.29 105 110
NA 1855-09-16 00:00:00 TS 28.97 -89.33 110 110 110
NA 03:00:00 TS 29.31 -89.37 110 110 110
NA 06:00:00 TS 29.67 -89.40 110 110 110
NA 09:00:00 TS 29.96 -89.40 105 105
NA 12:00:00 TS 30.23 -89.37 100 100 100
NA 15:00:00 TS 30.55 -89.32 85 95
NA 18:00:00 TS 30.90 -89.27 70 70 90
NA 21:00:00 TS 31.31 -89.22 60 80
NA 1855-09-17 00:00:00 TS 31.68 -89.24 50 50 70
NA 03:00:00 TS 31.95 -89.33 45 60
NA 06:00:00 TS 32.16 -89.50 40 40 50
NA 09:00:00 TS 31.84 -90.50 45
NA 12:00:00 TS 32.10 -90.70 40

Source Information

Agency Information
USA hurdat2-1851-2018-051019.txt:Line=445:UNNAMED
TOKYO
CMA
HKO
NEWDELHI
REUNION
BOM
NADI
WELLINGTON
DS824
TD9636
TD9635
NEUMANN
MLC

All available IBTrACS Data

SEASON BASIN SUBBASIN ISO_TIME_________ NATURE LAT LON WMO WIND WMO AGENCY DIST2LAND LANDFALL IFLAG USA AGENCY USA ATCF_ID USA LAT USA LON USA RECORD USA STATUS USA WIND USA SSHS MLC LAT MLC LON MLC CLASS MLC WIND STORM SPEED STORM DIR
Year degrees north degrees east kts km km degrees north degrees east kts 1 degrees north degrees east kts kts degrees
1855 NA CS 1855-09-08 18:00:00 TS 19.90 -85.90 144 103 _____________O -1 19.90 -85.90 TD 30 10 288
1855 NA CS 21:00:00 TS 20.05 -86.40 94 53 _____________P -1 20.05 -86.40 TD 30 10 288
1855 NA CS 1855-09-09 00:00:00 TS 20.20 -86.90 53 15 _____________O -1 20.20 -86.90 TD 30 10 288
1855 NA CS 03:00:00 TS 20.35 -87.37 10 0 _____________P -1 20.35 -87.37 TD 32 9 290
1855 NA NA 06:00:00 TS 20.50 -87.80 0 0 _____________O -1 20.50 -87.80 TS 35 8 292
1855 NA NA 09:00:00 TS 20.65 -88.17 0 0 _____________P -1 20.65 -88.17 TS 35 7 295
1855 NA NA 12:00:00 TS 20.80 -88.50 0 0 _____________O -1 20.80 -88.50 TS 35 7 294
1855 NA NA 15:00:00 TS 20.94 -88.86 0 0 _____________P -1 20.94 -88.86 TS 35 7 295
1855 NA NA 18:00:00 TS 21.10 -89.20 0 0 _____________O -1 21.10 -89.20 TS 35 7 300
1855 NA GM 21:00:00 TS 21.30 -89.51 11 11 _____________P -1 21.30 -89.51 TS 37 7 306
1855 NA GM 1855-09-10 00:00:00 TS 21.50 -89.80 33 33 _____________O -1 21.50 -89.80 TS 40 6 304
1855 NA GM 03:00:00 TS 21.65 -90.07 49 49 _____________P -1 21.65 -90.07 TS 40 6 303
1855 NA GM 06:00:00 TS 21.80 -90.30 78 78 _____________O -1 21.80 -90.30 TS 40 5 310
1855 NA GM 09:00:00 TS 22.00 -90.51 102 102 _____________P -1 22.00 -90.51 TS 40 5 317
1855 NA GM 12:00:00 TS 22.20 -90.70 129 129 _____________O -1 22.20 -90.70 TS 40 5 318
1855 NA GM 15:00:00 TS 22.36 -90.87 158 158 _____________P -1 22.36 -90.87 TS 42 4 317
1855 NA GM 18:00:00 TS 22.50 -91.00 172 172 _____________O -1 22.50 -91.00 TS 45 4 323
1855 NA GM 21:00:00 TS 22.65 -91.10 186 186 _____________P -1 22.65 -91.10 TS 45 4 329
1855 NA GM 1855-09-11 00:00:00 TS 22.80 -91.20 211 211 _____________O -1 22.80 -91.20 TS 45 4 321
1855 NA GM 03:00:00 TS 22.95 -91.36 240 240 _____________P -1 22.95 -91.36 TS 47 4 317
1855 NA GM 06:00:00 TS 23.10 -91.50 255 255 _____________O -1 23.10 -91.50 TS 50 4 327
1855 NA GM 09:00:00 TS 23.25 -91.57 270 270 _____________P -1 23.25 -91.57 TS 52 3 344
1855 NA GM 12:00:00 TS 23.40 -91.60 289 289 _____________O -1 23.40 -91.60 TS 55 3 351
1855 NA GM 15:00:00 TS 23.55 -91.61 309 299 _____________P -1 23.55 -91.61 TS 55 3 0
1855 NA GM 18:00:00 TS 23.70 -91.60 319 319 _____________O -1 23.70 -91.60 TS 55 3 0
1855 NA GM 21:00:00 TS 23.85 -91.61 330 330 _____________P -1 23.85 -91.61 TS 57 3 0
1855 NA GM 1855-09-12 00:00:00 TS 24.00 -91.60 350 350 _____________O -1 24.00 -91.60 TS 60 3 17
1855 NA GM 03:00:00 TS 24.15 -91.52 367 364 _____________P -1 24.15 -91.52 TS 60 4 31
1855 NA GM 06:00:00 TS 24.30 -91.40 375 375 _____________O -1 24.30 -91.40 TS 60 4 33
1855 NA GM 09:00:00 TS 24.45 -91.30 382 382 _____________P -1 24.45 -91.30 TS 65 4 31
1855 NA GM 12:00:00 TS 24.60 -91.20 401 401 _____________O -1 24.60 -91.20 HU 70 4 31
1855 NA GM 15:00:00 TS 24.75 -91.10 410 410 _____________P -1 24.75 -91.10 HU 72 4 31
1855 NA GM 18:00:00 TS 24.90 -91.00 428 428 _____________O -1 24.90 -91.00 HU 75 3 29
1855 NA GM 21:00:00 TS 25.05 -90.91 436 435 _____________P -1 25.05 -90.91 HU 77 4 31
1855 NA GM 1855-09-13 00:00:00 TS 25.20 -90.80 435 424 _____________O -1 25.20 -90.80 HU 80 4 44
1855 NA GM 03:00:00 TS 25.35 -90.60 413 402 _____________P -1 25.35 -90.60 HU 82 5 50
1855 NA GM 06:00:00 TS 25.50 -90.40 402 390 _____________O -1 25.50 -90.40 HU 85 4 43
1855 NA GM 09:00:00 TS 25.65 -90.28 390 368 _____________P -1 25.65 -90.28 HU 87 4 31
1855 NA GM 12:00:00 TS 25.80 -90.20 368 357 _____________O -1 25.80 -90.20 HU 90 3 28
1855 NA GM 15:00:00 TS 25.95 -90.11 357 335 _____________P -1 25.95 -90.11 HU 92 4 31
1855 NA GM 18:00:00 TS 26.10 -90.00 335 322 _____________O -1 26.10 -90.00 HU 95 4 38
1855 NA GM 21:00:00 TS 26.25 -89.85 311 296 _____________P -1 26.25 -89.85 HU 95 4 42
1855 NA GM 1855-09-14 00:00:00 TS 26.40 -89.70 296 283 _____________O -1 26.40 -89.70 HU 95 4 37
1855 NA GM 03:00:00 TS 26.55 -89.59 283 259 _____________P -1 26.55 -89.59 HU 95 4 30
1855 NA GM 06:00:00 TS 26.70 -89.50 259 247 _____________O -1 26.70 -89.50 HU 95 3 30
1855 NA GM 09:00:00 TS 26.85 -89.40 247 224 _____________P -1 26.85 -89.40 HU 95 4 30
1855 NA GM 12:00:00 TS 27.00 -89.30 224 212 _____________O -1 27.00 -89.30 HU 95 3 31
1855 NA GM 15:00:00 TS 27.14 -89.20 212 189 _____________P -1 27.14 -89.20 HU 95 4 30
1855 NA GM 18:00:00 TS 27.30 -89.10 189 167 _____________O -1 27.30 -89.10 HU 95 4 28
1855 NA GM 21:00:00 TS 27.50 -88.99 167 167 _____________P -1 27.50 -88.99 HU 95 1 61
1855 NA GM 1855-09-15 00:00:00 TS 27.37 -88.97 70 hurdat_atl 178 178 O____________O hurdat_atl AL051855 26.70 -89.10 HU 70 1 27.70 -88.90 HU 95 1 159
1855 NA GM 03:00:00 TS 27.38 -88.96 178 167 P____________P AL051855 26.90 -89.08 HU 75 1 27.85 -88.84 HU 97 1 344
1855 NA GM 06:00:00 TS 27.46 -88.98 80 hurdat_atl 167 156 O____________O hurdat_atl AL051855 27.10 -89.10 HU 80 1 28.00 -88.80 MH 100 2 340
1855 NA GM 09:00:00 TS 27.59 -89.04 156 133 P____________P AL051855 27.29 -89.19 HU 85 2 28.18 -88.73 MH 100 4 343
1855 NA GM 12:00:00 TS 27.80 -89.10 90 hurdat_atl 133 100 O____________O hurdat_atl AL051855 27.50 -89.30 HU 90 2 28.40 -88.70 MH 100 5 347
1855 NA GM 15:00:00 TS 28.07 -89.17 100 67 P____________P AL051855 27.78 -89.36 HU 95 2 28.65 -88.78 MH 105 6 348
1855 NA GM 18:00:00 TS 28.37 -89.23 100 hurdat_atl 67 48 O____________O hurdat_atl AL051855 28.10 -89.40 HU 100 3 28.90 -88.90 MH 110 6 349
1855 NA GM 21:00:00 TS 28.66 -89.29 38 22 P____________P AL051855 28.43 -89.46 HU 105 3 29.10 -88.95 MH 110 6 352
1855 NA GM 1855-09-16 00:00:00 TS 28.97 -89.33 110 hurdat_atl 11 0 O____________O hurdat_atl AL051855 28.80 -89.50 HU 110 3 29.30 -89.00 MH 110 7 354
1855 NA NA 03:00:00 TS 29.31 -89.37 110 hurdat_atl 0 0 O____________P hurdat_atl AL051855 29.20 -89.50 L HU 110 3 29.54 -89.10 MH 110 7 355
1855 NA GM 06:00:00 TS 29.67 -89.40 110 hurdat_atl 0 0 O____________O hurdat_atl AL051855 29.60 -89.50 HU 110 3 29.80 -89.20 MH 110 6 360
1855 NA NA 09:00:00 TS 29.96 -89.40 9 9 P____________P AL051855 29.91 -89.47 HU 105 3 30.06 -89.24 MH 105 6 4
1855 NA GM 12:00:00 TS 30.23 -89.37 100 hurdat_atl 9 0 O____________O hurdat_atl AL051855 30.20 -89.40 HU 100 3 30.30 -89.30 MH 100 6 6
1855 NA NA 15:00:00 TS 30.55 -89.32 0 0 P____________P AL051855 30.57 -89.27 HU 85 2 30.50 -89.44 MH 95 7 8
1855 NA NA 18:00:00 TS 30.90 -89.27 70 hurdat_atl 0 0 O____________O hurdat_atl AL051855 31.00 -89.10 HU 70 1 30.70 -89.60 HU 90 8 6
1855 NA NA 21:00:00 TS 31.31 -89.22 0 0 P____________P AL051855 31.48 -88.96 HU 60 0 30.95 -89.74 HU 80 8 2
1855 NA NA 1855-09-17 00:00:00 TS 31.68 -89.24 50 hurdat_atl 0 0 O____________O hurdat_atl AL051855 32.00 -88.80 TS 50 0 31.20 -89.90 HU 70 7 352
1855 NA NA 03:00:00 TS 31.95 -89.33 0 0 P____________P AL051855 32.51 -88.57 TS 45 0 31.40 -90.09 HU 60 5 335
1855 NA NA 06:00:00 TS 32.16 -89.50 40 hurdat_atl 0 0 O____________O hurdat_atl AL051855 33.00 -88.30 TS 40 0 31.60 -90.30 TS 50 10 263
1855 NA NA 09:00:00 TS 31.84 -90.50 0 0 _____________P AL051855 TS -1 31.84 -90.50 TS 45 10 267
1855 NA NA 12:00:00 TS 32.10 -90.70 0 _____________O -1 32.10 -90.70 TS 40 6 327